sensor_id;sensor_type;location;lat;lon;timestamp;P1;durP1;ratioP1;P2;durP2;ratioP2
47760;SDS011;33524;55.434;38.520;2023-05-10T00:02:22;24.05;;;15.68;;
47760;SDS011;33524;55.434;38.520;2023-05-10T00:04:50;22.95;;;16.23;;
47760;SDS011;33524;55.434;38.520;2023-05-10T00:07:19;25.80;;;17.35;;
47760;SDS011;33524;55.434;38.520;2023-05-10T00:09:47;23.17;;;15.60;;
47760;SDS011;33524;55.434;38.520;2023-05-10T00:12:16;26.95;;;14.95;;
47760;SDS011;33524;55.434;38.520;2023-05-10T00:14:43;23.48;;;14.85;;
47760;SDS011;33524;55.434;38.520;2023-05-10T00:17:12;20.25;;;14.80;;
47760;SDS011;33524;55.434;38.520;2023-05-10T00:19:41;20.48;;;14.75;;
47760;SDS011;33524;55.434;38.520;2023-05-10T00:22:09;20.77;;;14.23;;
47760;SDS011;33524;55.434;38.520;2023-05-10T00:24:37;21.17;;;14.75;;
47760;SDS011;33524;55.434;38.520;2023-05-10T00:27:06;29.02;;;15.70;;
47760;SDS011;33524;55.434;38.520;2023-05-10T00:29:34;26.67;;;16.02;;
47760;SDS011;33524;55.434;38.520;2023-05-10T00:32:02;27.83;;;16.08;;
47760;SDS011;33524;55.434;38.520;2023-05-10T00:34:30;24.87;;;15.95;;
47760;SDS011;33524;55.434;38.520;2023-05-10T00:36:58;23.70;;;15.93;;
47760;SDS011;33524;55.434;38.520;2023-05-10T00:39:26;23.83;;;16.20;;
47760;SDS011;33524;55.434;38.520;2023-05-10T00:41:56;26.83;;;15.50;;
47760;SDS011;33524;55.434;38.520;2023-05-10T00:44:25;23.60;;;16.48;;
47760;SDS011;33524;55.434;38.520;2023-05-10T00:46:53;21.10;;;14.02;;
47760;SDS011;33524;55.434;38.520;2023-05-10T00:49:22;23.92;;;14.87;;
47760;SDS011;33524;55.434;38.520;2023-05-10T00:51:50;22.75;;;15.35;;
47760;SDS011;33524;55.434;38.520;2023-05-10T00:54:19;27.05;;;14.52;;
47760;SDS011;33524;55.434;38.520;2023-05-10T00:56:48;20.58;;;14.48;;
47760;SDS011;33524;55.434;38.520;2023-05-10T00:59:17;20.45;;;12.98;;
47760;SDS011;33524;55.434;38.520;2023-05-10T01:01:45;17.83;;;11.90;;
47760;SDS011;33524;55.434;38.520;2023-05-10T01:04:14;20.73;;;14.00;;
47760;SDS011;33524;55.434;38.520;2023-05-10T01:06:42;20.55;;;14.65;;
47760;SDS011;33524;55.434;38.520;2023-05-10T01:09:11;21.65;;;14.25;;
47760;SDS011;33524;55.434;38.520;2023-05-10T01:11:39;21.12;;;13.88;;
47760;SDS011;33524;55.434;38.520;2023-05-10T01:14:07;19.08;;;13.32;;
47760;SDS011;33524;55.434;38.520;2023-05-10T01:16:38;17.87;;;13.43;;
47760;SDS011;33524;55.434;38.520;2023-05-10T01:19:27;20.90;;;13.32;;
47760;SDS011;33524;55.434;38.520;2023-05-10T01:27:14;20.92;;;14.57;;
47760;SDS011;33524;55.434;38.520;2023-05-10T01:30:13;20.12;;;13.52;;
47760;SDS011;33524;55.434;38.520;2023-05-10T01:36:13;19.33;;;14.13;;
47760;SDS011;33524;55.434;38.520;2023-05-10T01:39:06;19.15;;;13.60;;
47760;SDS011;33524;55.434;38.520;2023-05-10T01:42:16;21.30;;;15.70;;
47760;SDS011;33524;55.434;38.520;2023-05-10T01:44:52;18.77;;;13.65;;
47760;SDS011;33524;55.434;38.520;2023-05-10T01:47:48;21.05;;;13.95;;
47760;SDS011;33524;55.434;38.520;2023-05-10T01:50:18;17.77;;;12.50;;
47760;SDS011;33524;55.434;38.520;2023-05-10T01:52:51;18.92;;;11.50;;
47760;SDS011;33524;55.434;38.520;2023-05-10T01:55:23;25.02;;;13.15;;
47760;SDS011;33524;55.434;38.520;2023-05-10T01:58:17;19.83;;;13.35;;
47760;SDS011;33524;55.434;38.520;2023-05-10T02:00:48;18.85;;;12.68;;
47760;SDS011;33524;55.434;38.520;2023-05-10T02:03:18;19.23;;;12.52;;
47760;SDS011;33524;55.434;38.520;2023-05-10T02:05:49;20.75;;;13.48;;
47760;SDS011;33524;55.434;38.520;2023-05-10T02:08:21;23.15;;;16.00;;
47760;SDS011;33524;55.434;38.520;2023-05-10T02:10:51;20.17;;;13.98;;
47760;SDS011;33524;55.434;38.520;2023-05-10T02:13:23;18.85;;;13.25;;
47760;SDS011;33524;55.434;38.520;2023-05-10T02:15:53;17.70;;;12.85;;
47760;SDS011;33524;55.434;38.520;2023-05-10T02:18:23;17.87;;;12.57;;
47760;SDS011;33524;55.434;38.520;2023-05-10T02:20:55;17.67;;;12.68;;
47760;SDS011;33524;55.434;38.520;2023-05-10T02:23:24;17.40;;;13.10;;
47760;SDS011;33524;55.434;38.520;2023-05-10T02:25:53;19.75;;;12.25;;
47760;SDS011;33524;55.434;38.520;2023-05-10T02:28:23;21.87;;;12.40;;
47760;SDS011;33524;55.434;38.520;2023-05-10T02:30:52;21.12;;;13.62;;
47760;SDS011;33524;55.434;38.520;2023-05-10T02:33:22;18.10;;;11.68;;
47760;SDS011;33524;55.434;38.520;2023-05-10T02:35:51;17.27;;;11.77;;
47760;SDS011;33524;55.434;38.520;2023-05-10T02:38:20;16.27;;;12.25;;
47760;SDS011;33524;55.434;38.520;2023-05-10T02:40:50;16.20;;;12.52;;
47760;SDS011;33524;55.434;38.520;2023-05-10T02:43:22;19.87;;;12.60;;
47760;SDS011;33524;55.434;38.520;2023-05-10T02:45:51;19.10;;;12.00;;
47760;SDS011;33524;55.434;38.520;2023-05-10T02:48:19;21.20;;;12.63;;
47760;SDS011;33524;55.434;38.520;2023-05-10T02:50:47;20.80;;;13.57;;
47760;SDS011;33524;55.434;38.520;2023-05-10T02:53:21;16.77;;;10.40;;
47760;SDS011;33524;55.434;38.520;2023-05-10T02:55:51;18.85;;;11.48;;
47760;SDS011;33524;55.434;38.520;2023-05-10T02:58:25;16.90;;;11.85;;
47760;SDS011;33524;55.434;38.520;2023-05-10T03:00:54;20.50;;;10.80;;
47760;SDS011;33524;55.434;38.520;2023-05-10T03:03:22;17.10;;;10.93;;
47760;SDS011;33524;55.434;38.520;2023-05-10T03:05:50;17.30;;;10.30;;
47760;SDS011;33524;55.434;38.520;2023-05-10T03:08:22;14.40;;;10.10;;
47760;SDS011;33524;55.434;38.520;2023-05-10T03:11:05;17.00;;;10.35;;
47760;SDS011;33524;55.434;38.520;2023-05-10T03:14:10;17.15;;;11.20;;
47760;SDS011;33524;55.434;38.520;2023-05-10T03:19:57;19.05;;;11.30;;
47760;SDS011;33524;55.434;38.520;2023-05-10T03:22:31;14.60;;;10.55;;
47760;SDS011;33524;55.434;38.520;2023-05-10T03:25:06;16.98;;;10.30;;
47760;SDS011;33524;55.434;38.520;2023-05-10T03:27:37;19.37;;;10.00;;
47760;SDS011;33524;55.434;38.520;2023-05-10T03:30:12;14.57;;;9.05;;
47760;SDS011;33524;55.434;38.520;2023-05-10T03:32:41;15.88;;;9.15;;
47760;SDS011;33524;55.434;38.520;2023-05-10T03:35:11;14.63;;;9.38;;
47760;SDS011;33524;55.434;38.520;2023-05-10T03:37:43;14.10;;;9.00;;
47760;SDS011;33524;55.434;38.520;2023-05-10T03:40:11;15.23;;;9.30;;
47760;SDS011;33524;55.434;38.520;2023-05-10T03:42:40;14.90;;;10.90;;
47760;SDS011;33524;55.434;38.520;2023-05-10T03:45:08;16.08;;;10.07;;
47760;SDS011;33524;55.434;38.520;2023-05-10T03:47:37;14.50;;;9.48;;
47760;SDS011;33524;55.434;38.520;2023-05-10T03:50:05;12.45;;;9.10;;
47760;SDS011;33524;55.434;38.520;2023-05-10T03:52:34;17.10;;;10.13;;
47760;SDS011;33524;55.434;38.520;2023-05-10T03:55:02;16.08;;;9.35;;
47760;SDS011;33524;55.434;38.520;2023-05-10T03:57:31;16.33;;;8.93;;
47760;SDS011;33524;55.434;38.520;2023-05-10T03:59:59;12.70;;;9.65;;
47760;SDS011;33524;55.434;38.520;2023-05-10T04:02:32;14.43;;;8.75;;
47760;SDS011;33524;55.434;38.520;2023-05-10T04:05:01;15.95;;;9.50;;
47760;SDS011;33524;55.434;38.520;2023-05-10T04:07:30;16.98;;;9.43;;
47760;SDS011;33524;55.434;38.520;2023-05-10T04:09:58;14.13;;;9.63;;
47760;SDS011;33524;55.434;38.520;2023-05-10T04:12:26;17.73;;;10.00;;
47760;SDS011;33524;55.434;38.520;2023-05-10T04:14:54;19.02;;;10.10;;
47760;SDS011;33524;55.434;38.520;2023-05-10T04:17:22;12.90;;;9.48;;
47760;SDS011;33524;55.434;38.520;2023-05-10T04:19:51;18.75;;;10.48;;
47760;SDS011;33524;55.434;38.520;2023-05-10T04:22:22;16.10;;;9.50;;
47760;SDS011;33524;55.434;38.520;2023-05-10T04:24:50;15.45;;;8.60;;
47760;SDS011;33524;55.434;38.520;2023-05-10T04:27:18;17.20;;;8.38;;
47760;SDS011;33524;55.434;38.520;2023-05-10T04:29:47;14.20;;;9.75;;
47760;SDS011;33524;55.434;38.520;2023-05-10T04:32:15;14.38;;;10.07;;
47760;SDS011;33524;55.434;38.520;2023-05-10T04:34:44;12.55;;;9.15;;
47760;SDS011;33524;55.434;38.520;2023-05-10T04:37:12;13.73;;;9.45;;
47760;SDS011;33524;55.434;38.520;2023-05-10T04:39:40;12.52;;;8.45;;
47760;SDS011;33524;55.434;38.520;2023-05-10T04:42:09;12.82;;;9.10;;
47760;SDS011;33524;55.434;38.520;2023-05-10T04:44:37;12.10;;;9.07;;
47760;SDS011;33524;55.434;38.520;2023-05-10T04:47:05;11.98;;;8.50;;
47760;SDS011;33524;55.434;38.520;2023-05-10T04:49:36;14.43;;;8.93;;
47760;SDS011;33524;55.434;38.520;2023-05-10T04:52:04;12.52;;;8.43;;
47760;SDS011;33524;55.434;38.520;2023-05-10T04:54:32;14.93;;;8.40;;
47760;SDS011;33524;55.434;38.520;2023-05-10T04:57:01;11.75;;;8.23;;
47760;SDS011;33524;55.434;38.520;2023-05-10T04:59:29;12.88;;;6.90;;
47760;SDS011;33524;55.434;38.520;2023-05-10T05:01:57;10.45;;;7.18;;
47760;SDS011;33524;55.434;38.520;2023-05-10T05:04:26;11.25;;;8.10;;
47760;SDS011;33524;55.434;38.520;2023-05-10T05:06:54;14.07;;;8.38;;
47760;SDS011;33524;55.434;38.520;2023-05-10T05:09:23;11.73;;;6.95;;
47760;SDS011;33524;55.434;38.520;2023-05-10T05:11:51;12.05;;;7.87;;
47760;SDS011;33524;55.434;38.520;2023-05-10T05:14:19;13.60;;;8.20;;
47760;SDS011;33524;55.434;38.520;2023-05-10T05:16:52;12.48;;;7.80;;
47760;SDS011;33524;55.434;38.520;2023-05-10T05:19:21;11.27;;;7.95;;
47760;SDS011;33524;55.434;38.520;2023-05-10T05:21:50;11.05;;;7.93;;
47760;SDS011;33524;55.434;38.520;2023-05-10T05:24:19;15.93;;;8.02;;
47760;SDS011;33524;55.434;38.520;2023-05-10T05:26:47;14.80;;;7.85;;
47760;SDS011;33524;55.434;38.520;2023-05-10T05:29:16;14.35;;;9.23;;
47760;SDS011;33524;55.434;38.520;2023-05-10T05:31:44;12.50;;;7.43;;
47760;SDS011;33524;55.434;38.520;2023-05-10T05:34:13;12.20;;;7.20;;
47760;SDS011;33524;55.434;38.520;2023-05-10T05:36:41;11.68;;;7.87;;
47760;SDS011;33524;55.434;38.520;2023-05-10T05:39:09;11.10;;;7.45;;
47760;SDS011;33524;55.434;38.520;2023-05-10T05:41:38;11.02;;;8.05;;
47760;SDS011;33524;55.434;38.520;2023-05-10T05:44:09;13.93;;;8.63;;
47760;SDS011;33524;55.434;38.520;2023-05-10T05:46:37;9.52;;;7.15;;
47760;SDS011;33524;55.434;38.520;2023-05-10T05:49:06;10.55;;;7.05;;
47760;SDS011;33524;55.434;38.520;2023-05-10T05:51:34;11.05;;;7.30;;
47760;SDS011;33524;55.434;38.520;2023-05-10T05:54:03;9.02;;;5.32;;
47760;SDS011;33524;55.434;38.520;2023-05-10T05:56:31;9.25;;;4.93;;
47760;SDS011;33524;55.434;38.520;2023-05-10T05:59:00;10.73;;;6.72;;
47760;SDS011;33524;55.434;38.520;2023-05-10T06:01:28;11.10;;;7.80;;
47760;SDS011;33524;55.434;38.520;2023-05-10T06:03:57;12.82;;;6.32;;
47760;SDS011;33524;55.434;38.520;2023-05-10T06:06:25;13.50;;;6.82;;
47760;SDS011;33524;55.434;38.520;2023-05-10T06:08:53;11.30;;;6.65;;
47760;SDS011;33524;55.434;38.520;2023-05-10T06:11:22;6.05;;;3.80;;
47760;SDS011;33524;55.434;38.520;2023-05-10T06:13:51;11.27;;;5.85;;
47760;SDS011;33524;55.434;38.520;2023-05-10T06:16:22;10.13;;;5.62;;
47760;SDS011;33524;55.434;38.520;2023-05-10T06:18:50;7.78;;;4.22;;
47760;SDS011;33524;55.434;38.520;2023-05-10T06:21:19;7.80;;;4.78;;
47760;SDS011;33524;55.434;38.520;2023-05-10T06:23:47;7.65;;;4.00;;
47760;SDS011;33524;55.434;38.520;2023-05-10T06:26:16;6.05;;;3.92;;
47760;SDS011;33524;55.434;38.520;2023-05-10T06:28:44;8.60;;;5.57;;
47760;SDS011;33524;55.434;38.520;2023-05-10T06:31:13;6.97;;;4.70;;
47760;SDS011;33524;55.434;38.520;2023-05-10T06:33:41;11.15;;;5.55;;
47760;SDS011;33524;55.434;38.520;2023-05-10T06:36:09;6.68;;;4.87;;
47760;SDS011;33524;55.434;38.520;2023-05-10T06:38:38;10.02;;;5.45;;
47760;SDS011;33524;55.434;38.520;2023-05-10T06:41:06;8.30;;;4.95;;
47760;SDS011;33524;55.434;38.520;2023-05-10T06:43:35;6.65;;;4.32;;
47760;SDS011;33524;55.434;38.520;2023-05-10T06:46:08;7.03;;;4.80;;
47760;SDS011;33524;55.434;38.520;2023-05-10T06:48:36;7.47;;;4.80;;
47760;SDS011;33524;55.434;38.520;2023-05-10T06:51:04;9.55;;;5.80;;
47760;SDS011;33524;55.434;38.520;2023-05-10T06:53:33;6.75;;;4.28;;
47760;SDS011;33524;55.434;38.520;2023-05-10T06:56:01;11.02;;;5.15;;
47760;SDS011;33524;55.434;38.520;2023-05-10T06:58:30;7.28;;;3.83;;
47760;SDS011;33524;55.434;38.520;2023-05-10T07:01:03;10.30;;;4.43;;
47760;SDS011;33524;55.434;38.520;2023-05-10T07:03:33;9.13;;;4.50;;
47760;SDS011;33524;55.434;38.520;2023-05-10T07:06:02;6.90;;;4.55;;
47760;SDS011;33524;55.434;38.520;2023-05-10T07:08:31;8.45;;;4.85;;
47760;SDS011;33524;55.434;38.520;2023-05-10T07:11:02;5.97;;;4.10;;
47760;SDS011;33524;55.434;38.520;2023-05-10T07:13:32;5.85;;;3.45;;
47760;SDS011;33524;55.434;38.520;2023-05-10T07:16:02;6.20;;;3.65;;
47760;SDS011;33524;55.434;38.520;2023-05-10T07:18:30;6.47;;;3.40;;
47760;SDS011;33524;55.434;38.520;2023-05-10T07:20:59;13.00;;;3.85;;
47760;SDS011;33524;55.434;38.520;2023-05-10T07:23:27;4.28;;;2.70;;
47760;SDS011;33524;55.434;38.520;2023-05-10T07:25:55;4.40;;;2.50;;
47760;SDS011;33524;55.434;38.520;2023-05-10T07:28:25;5.62;;;2.85;;
47760;SDS011;33524;55.434;38.520;2023-05-10T07:30:53;5.80;;;3.30;;
47760;SDS011;33524;55.434;38.520;2023-05-10T07:33:21;6.05;;;3.45;;
47760;SDS011;33524;55.434;38.520;2023-05-10T07:35:49;7.75;;;3.50;;
47760;SDS011;33524;55.434;38.520;2023-05-10T07:38:18;3.78;;;2.28;;
47760;SDS011;33524;55.434;38.520;2023-05-10T07:40:46;4.68;;;2.80;;
47760;SDS011;33524;55.434;38.520;2023-05-10T07:43:15;3.95;;;2.67;;
47760;SDS011;33524;55.434;38.520;2023-05-10T07:45:43;3.53;;;2.35;;
47760;SDS011;33524;55.434;38.520;2023-05-10T07:48:11;6.00;;;2.67;;
47760;SDS011;33524;55.434;38.520;2023-05-10T07:50:40;4.40;;;2.37;;
47760;SDS011;33524;55.434;38.520;2023-05-10T07:53:09;5.55;;;3.15;;
47760;SDS011;33524;55.434;38.520;2023-05-10T07:55:37;6.07;;;2.83;;
47760;SDS011;33524;55.434;38.520;2023-05-10T07:58:06;4.43;;;2.87;;
47760;SDS011;33524;55.434;38.520;2023-05-10T08:00:34;4.75;;;2.67;;
47760;SDS011;33524;55.434;38.520;2023-05-10T08:03:03;6.18;;;3.12;;
47760;SDS011;33524;55.434;38.520;2023-05-10T08:05:34;4.62;;;2.92;;
47760;SDS011;33524;55.434;38.520;2023-05-10T08:08:03;6.62;;;3.20;;
47760;SDS011;33524;55.434;38.520;2023-05-10T08:10:31;6.35;;;2.70;;
47760;SDS011;33524;55.434;38.520;2023-05-10T08:13:00;5.53;;;2.90;;
47760;SDS011;33524;55.434;38.520;2023-05-10T08:15:28;6.15;;;2.67;;
47760;SDS011;33524;55.434;38.520;2023-05-10T08:17:56;8.25;;;3.47;;
47760;SDS011;33524;55.434;38.520;2023-05-10T08:20:25;4.95;;;2.40;;
47760;SDS011;33524;55.434;38.520;2023-05-10T08:22:53;5.30;;;2.87;;
47760;SDS011;33524;55.434;38.520;2023-05-10T08:25:22;6.20;;;2.80;;
47760;SDS011;33524;55.434;38.520;2023-05-10T08:27:50;4.22;;;1.87;;
47760;SDS011;33524;55.434;38.520;2023-05-10T08:30:19;6.18;;;3.65;;
47760;SDS011;33524;55.434;38.520;2023-05-10T08:32:47;7.18;;;2.25;;
47760;SDS011;33524;55.434;38.520;2023-05-10T08:35:16;3.30;;;2.17;;
47760;SDS011;33524;55.434;38.520;2023-05-10T08:37:44;3.45;;;1.90;;
47760;SDS011;33524;55.434;38.520;2023-05-10T08:40:14;4.53;;;1.98;;
47760;SDS011;33524;55.434;38.520;2023-05-10T08:42:43;4.55;;;2.40;;
47760;SDS011;33524;55.434;38.520;2023-05-10T08:45:21;4.03;;;2.42;;
47760;SDS011;33524;55.434;38.520;2023-05-10T08:47:52;4.95;;;2.12;;
47760;SDS011;33524;55.434;38.520;2023-05-10T08:50:21;3.92;;;2.00;;
47760;SDS011;33524;55.434;38.520;2023-05-10T08:52:50;5.20;;;2.20;;
47760;SDS011;33524;55.434;38.520;2023-05-10T08:55:23;3.62;;;1.95;;
47760;SDS011;33524;55.434;38.520;2023-05-10T08:57:51;2.70;;;1.90;;
47760;SDS011;33524;55.434;38.520;2023-05-10T09:00:20;2.45;;;1.83;;
47760;SDS011;33524;55.434;38.520;2023-05-10T09:02:51;5.05;;;2.00;;
47760;SDS011;33524;55.434;38.520;2023-05-10T09:05:20;4.30;;;2.28;;
47760;SDS011;33524;55.434;38.520;2023-05-10T09:07:48;3.83;;;2.20;;
47760;SDS011;33524;55.434;38.520;2023-05-10T09:10:17;6.28;;;2.60;;
47760;SDS011;33524;55.434;38.520;2023-05-10T09:12:46;3.97;;;2.40;;
47760;SDS011;33524;55.434;38.520;2023-05-10T09:15:15;4.40;;;2.42;;
47760;SDS011;33524;55.434;38.520;2023-05-10T09:17:47;3.08;;;1.85;;
47760;SDS011;33524;55.434;38.520;2023-05-10T09:20:17;4.15;;;2.30;;
47760;SDS011;33524;55.434;38.520;2023-05-10T09:22:47;2.92;;;1.83;;
47760;SDS011;33524;55.434;38.520;2023-05-10T09:25:15;4.12;;;1.90;;
47760;SDS011;33524;55.434;38.520;2023-05-10T09:27:46;3.65;;;1.95;;
47760;SDS011;33524;55.434;38.520;2023-05-10T09:30:16;4.18;;;2.05;;
47760;SDS011;33524;55.434;38.520;2023-05-10T09:32:54;3.47;;;2.28;;
47760;SDS011;33524;55.434;38.520;2023-05-10T09:35:24;3.40;;;1.55;;
47760;SDS011;33524;55.434;38.520;2023-05-10T09:37:57;3.25;;;1.58;;
47760;SDS011;33524;55.434;38.520;2023-05-10T09:40:28;2.70;;;1.80;;
47760;SDS011;33524;55.434;38.520;2023-05-10T09:42:58;2.83;;;1.92;;
47760;SDS011;33524;55.434;38.520;2023-05-10T09:45:33;3.15;;;1.80;;
47760;SDS011;33524;55.434;38.520;2023-05-10T09:48:05;3.73;;;1.60;;
47760;SDS011;33524;55.434;38.520;2023-05-10T09:50:34;2.12;;;1.58;;
47760;SDS011;33524;55.434;38.520;2023-05-10T09:53:03;3.05;;;1.80;;
47760;SDS011;33524;55.434;38.520;2023-05-10T09:55:43;3.65;;;1.55;;
47760;SDS011;33524;55.434;38.520;2023-05-10T09:58:13;6.43;;;2.10;;
47760;SDS011;33524;55.434;38.520;2023-05-10T10:00:43;3.28;;;1.92;;
47760;SDS011;33524;55.434;38.520;2023-05-10T10:03:13;3.80;;;2.20;;
47760;SDS011;33524;55.434;38.520;2023-05-10T10:05:43;4.68;;;2.72;;
47760;SDS011;33524;55.434;38.520;2023-05-10T10:08:12;2.92;;;2.10;;
47760;SDS011;33524;55.434;38.520;2023-05-10T10:10:42;2.70;;;1.83;;
47760;SDS011;33524;55.434;38.520;2023-05-10T10:13:14;4.03;;;1.80;;
47760;SDS011;33524;55.434;38.520;2023-05-10T10:15:43;4.12;;;1.70;;
47760;SDS011;33524;55.434;38.520;2023-05-10T10:18:13;3.62;;;1.85;;
47760;SDS011;33524;55.434;38.520;2023-05-10T10:20:43;3.28;;;1.60;;
47760;SDS011;33524;55.434;38.520;2023-05-10T10:23:11;5.82;;;2.00;;
47760;SDS011;33524;55.434;38.520;2023-05-10T10:25:44;5.40;;;1.90;;
47760;SDS011;33524;55.434;38.520;2023-05-10T10:28:20;3.35;;;2.08;;
47760;SDS011;33524;55.434;38.520;2023-05-10T10:31:02;3.37;;;;;
47760;SDS011;33524;55.434;38.520;2023-05-10T10:34:08;3.17;;;1.77;;
47760;SDS011;33524;55.434;38.520;2023-05-10T10:36:48;3.17;;;1.77;;
47760;SDS011;33524;55.434;38.520;2023-05-10T10:39:16;3.12;;;1.92;;
47760;SDS011;33524;55.434;38.520;2023-05-10T10:41:53;2.75;;;1.55;;
47760;SDS011;33524;55.434;38.520;2023-05-10T10:47:03;3.60;;;1.50;;
47760;SDS011;33524;55.434;38.520;2023-05-10T10:49:42;2.87;;;1.45;;
47760;SDS011;33524;55.434;38.520;2023-05-10T10:52:23;3.75;;;1.60;;
47760;SDS011;33524;55.434;38.520;2023-05-10T10:55:01;2.33;;;1.55;;
47760;SDS011;33524;55.434;38.520;2023-05-10T10:57:43;3.33;;;1.77;;
47760;SDS011;33524;55.434;38.520;2023-05-10T11:02:59;3.67;;;1.80;;
47760;SDS011;33524;55.434;38.520;2023-05-10T11:08:06;3.10;;;1.30;;
47760;SDS011;33524;55.434;38.520;2023-05-10T11:10:52;2.60;;;1.50;;
47760;SDS011;33524;55.434;38.520;2023-05-10T11:13:46;2.83;;;1.62;;
47760;SDS011;33524;55.434;38.520;2023-05-10T11:16:21;2.90;;;1.65;;
47760;SDS011;33524;55.434;38.520;2023-05-10T11:18:57;2.12;;;1.52;;
47760;SDS011;33524;55.434;38.520;2023-05-10T11:21:27;9.55;;;2.47;;
47760;SDS011;33524;55.434;38.520;2023-05-10T11:23:58;4.70;;;2.17;;
47760;SDS011;33524;55.434;38.520;2023-05-10T11:26:31;4.82;;;2.25;;
47760;SDS011;33524;55.434;38.520;2023-05-10T11:29:01;4.97;;;2.25;;
47760;SDS011;33524;55.434;38.520;2023-05-10T11:31:31;3.75;;;1.95;;
47760;SDS011;33524;55.434;38.520;2023-05-10T11:34:00;4.00;;;2.33;;
47760;SDS011;33524;55.434;38.520;2023-05-10T11:36:32;3.17;;;1.60;;
47760;SDS011;33524;55.434;38.520;2023-05-10T11:39:02;6.22;;;1.92;;
47760;SDS011;33524;55.434;38.520;2023-05-10T11:41:31;4.57;;;1.65;;
47760;SDS011;33524;55.434;38.520;2023-05-10T11:44:00;2.85;;;1.90;;
47760;SDS011;33524;55.434;38.520;2023-05-10T11:46:29;4.25;;;1.80;;
47760;SDS011;33524;55.434;38.520;2023-05-10T11:48:59;3.47;;;2.10;;
47760;SDS011;33524;55.434;38.520;2023-05-10T11:51:29;4.57;;;2.03;;
47760;SDS011;33524;55.434;38.520;2023-05-10T11:54:07;3.62;;;1.92;;
47760;SDS011;33524;55.434;38.520;2023-05-10T11:56:37;3.92;;;2.25;;
47760;SDS011;33524;55.434;38.520;2023-05-10T11:59:07;4.37;;;2.12;;
47760;SDS011;33524;55.434;38.520;2023-05-10T12:01:35;2.67;;;1.40;;
47760;SDS011;33524;55.434;38.520;2023-05-10T12:04:04;3.30;;;1.87;;
47760;SDS011;33524;55.434;38.520;2023-05-10T12:06:39;4.85;;;1.87;;
47760;SDS011;33524;55.434;38.520;2023-05-10T12:09:08;6.15;;;3.10;;
47760;SDS011;33524;55.434;38.520;2023-05-10T12:11:38;7.22;;;2.03;;
47760;SDS011;33524;55.434;38.520;2023-05-10T12:14:10;4.50;;;1.98;;
47760;SDS011;33524;55.434;38.520;2023-05-10T12:16:39;2.35;;;1.67;;
47760;SDS011;33524;55.434;38.520;2023-05-10T12:19:07;2.53;;;1.50;;
47760;SDS011;33524;55.434;38.520;2023-05-10T12:21:36;2.72;;;1.85;;
47760;SDS011;33524;55.434;38.520;2023-05-10T12:24:06;4.43;;;1.77;;
47760;SDS011;33524;55.434;38.520;2023-05-10T12:26:35;4.12;;;2.20;;
47760;SDS011;33524;55.434;38.520;2023-05-10T12:29:18;3.40;;;1.92;;
47760;SDS011;33524;55.434;38.520;2023-05-10T12:31:54;3.33;;;2.37;;
47760;SDS011;33524;55.434;38.520;2023-05-10T12:36:57;3.28;;;2.20;;
47760;SDS011;33524;55.434;38.520;2023-05-10T12:39:37;3.67;;;2.15;;
47760;SDS011;33524;55.434;38.520;2023-05-10T12:42:06;2.22;;;1.42;;
47760;SDS011;33524;55.434;38.520;2023-05-10T12:44:35;3.97;;;1.83;;
47760;SDS011;33524;55.434;38.520;2023-05-10T12:47:03;3.53;;;1.52;;
47760;SDS011;33524;55.434;38.520;2023-05-10T12:49:31;3.60;;;1.85;;
47760;SDS011;33524;55.434;38.520;2023-05-10T12:51:59;2.87;;;1.70;;
47760;SDS011;33524;55.434;38.520;2023-05-10T12:54:28;3.47;;;1.73;;
47760;SDS011;33524;55.434;38.520;2023-05-10T12:56:56;5.93;;;2.95;;
47760;SDS011;33524;55.434;38.520;2023-05-10T12:59:24;4.87;;;2.60;;
47760;SDS011;33524;55.434;38.520;2023-05-10T13:01:52;3.50;;;1.90;;
47760;SDS011;33524;55.434;38.520;2023-05-10T13:04:20;4.80;;;2.08;;
47760;SDS011;33524;55.434;38.520;2023-05-10T13:06:48;3.85;;;1.87;;
47760;SDS011;33524;55.434;38.520;2023-05-10T13:09:17;3.40;;;1.70;;
47760;SDS011;33524;55.434;38.520;2023-05-10T13:11:45;3.67;;;1.70;;
47760;SDS011;33524;55.434;38.520;2023-05-10T13:14:15;4.03;;;1.70;;
47760;SDS011;33524;55.434;38.520;2023-05-10T13:16:43;3.03;;;1.87;;
47760;SDS011;33524;55.434;38.520;2023-05-10T13:19:11;3.25;;;1.40;;
47760;SDS011;33524;55.434;38.520;2023-05-10T13:21:40;3.50;;;2.20;;
47760;SDS011;33524;55.434;38.520;2023-05-10T13:24:08;3.10;;;1.70;;
47760;SDS011;33524;55.434;38.520;2023-05-10T13:26:37;4.28;;;1.70;;
47760;SDS011;33524;55.434;38.520;2023-05-10T13:29:05;3.67;;;1.50;;
47760;SDS011;33524;55.434;38.520;2023-05-10T13:31:34;3.65;;;1.80;;
47760;SDS011;33524;55.434;38.520;2023-05-10T13:34:03;1.67;;;1.55;;
47760;SDS011;33524;55.434;38.520;2023-05-10T13:36:31;2.85;;;1.67;;
47760;SDS011;33524;55.434;38.520;2023-05-10T13:38:59;3.70;;;2.08;;
47760;SDS011;33524;55.434;38.520;2023-05-10T13:41:30;3.65;;;2.80;;
47760;SDS011;33524;55.434;38.520;2023-05-10T13:43:58;4.10;;;1.65;;
47760;SDS011;33524;55.434;38.520;2023-05-10T13:46:26;4.35;;;2.05;;
47760;SDS011;33524;55.434;38.520;2023-05-10T13:48:54;4.55;;;1.73;;
47760;SDS011;33524;55.434;38.520;2023-05-10T13:51:23;5.28;;;2.25;;
47760;SDS011;33524;55.434;38.520;2023-05-10T13:53:51;4.75;;;2.22;;
47760;SDS011;33524;55.434;38.520;2023-05-10T13:56:19;4.03;;;1.80;;
47760;SDS011;33524;55.434;38.520;2023-05-10T13:58:48;6.12;;;1.62;;
47760;SDS011;33524;55.434;38.520;2023-05-10T14:01:16;3.80;;;1.70;;
47760;SDS011;33524;55.434;38.520;2023-05-10T14:03:44;3.58;;;1.85;;
47760;SDS011;33524;55.434;38.520;2023-05-10T14:06:12;3.40;;;1.85;;
47760;SDS011;33524;55.434;38.520;2023-05-10T14:08:41;5.47;;;3.05;;
47760;SDS011;33524;55.434;38.520;2023-05-10T14:11:09;3.47;;;1.87;;
47760;SDS011;33524;55.434;38.520;2023-05-10T14:13:38;2.80;;;1.62;;
47760;SDS011;33524;55.434;38.520;2023-05-10T14:16:06;5.85;;;2.62;;
47760;SDS011;33524;55.434;38.520;2023-05-10T14:18:34;5.37;;;2.10;;
47760;SDS011;33524;55.434;38.520;2023-05-10T14:21:03;4.95;;;2.30;;
47760;SDS011;33524;55.434;38.520;2023-05-10T14:23:31;3.35;;;1.67;;
47760;SDS011;33524;55.434;38.520;2023-05-10T14:26:00;4.18;;;1.60;;
47760;SDS011;33524;55.434;38.520;2023-05-10T14:28:28;4.03;;;1.83;;
47760;SDS011;33524;55.434;38.520;2023-05-10T14:30:57;2.58;;;1.77;;
47760;SDS011;33524;55.434;38.520;2023-05-10T14:33:25;5.60;;;1.70;;
47760;SDS011;33524;55.434;38.520;2023-05-10T14:35:53;2.78;;;1.77;;
47760;SDS011;33524;55.434;38.520;2023-05-10T14:38:24;2.80;;;1.60;;
47760;SDS011;33524;55.434;38.520;2023-05-10T14:40:52;2.22;;;1.42;;
47760;SDS011;33524;55.434;38.520;2023-05-10T14:43:20;2.85;;;1.90;;
47760;SDS011;33524;55.434;38.520;2023-05-10T14:45:48;2.42;;;1.70;;
47760;SDS011;33524;55.434;38.520;2023-05-10T14:48:17;2.87;;;1.65;;
47760;SDS011;33524;55.434;38.520;2023-05-10T14:50:45;2.67;;;1.35;;
47760;SDS011;33524;55.434;38.520;2023-05-10T14:53:13;4.15;;;1.77;;
47760;SDS011;33524;55.434;38.520;2023-05-10T14:55:41;3.55;;;1.70;;
47760;SDS011;33524;55.434;38.520;2023-05-10T14:58:09;5.78;;;2.17;;
47760;SDS011;33524;55.434;38.520;2023-05-10T15:00:38;3.33;;;1.80;;
47760;SDS011;33524;55.434;38.520;2023-05-10T15:03:07;3.45;;;1.50;;
47760;SDS011;33524;55.434;38.520;2023-05-10T15:05:37;3.40;;;1.70;;
47760;SDS011;33524;55.434;38.520;2023-05-10T15:08:05;3.60;;;2.22;;